sensor_id;sensor_type;location;lat;lon;timestamp;pressure;altitude;pressure_sealevel;temperature;humidity
45275;BME280;31019;43.780;25.948;2023-03-23T00:00:53;101240.34;;;8.37;100.00
45275;BME280;31019;43.780;25.948;2023-03-23T00:03:22;101235.72;;;8.39;100.00
45275;BME280;31019;43.780;25.948;2023-03-23T00:05:51;101240.22;;;8.31;100.00
45275;BME280;31019;43.780;25.948;2023-03-23T00:08:18;101228.00;;;8.30;100.00
45275;BME280;31019;43.780;25.948;2023-03-23T00:10:50;101233.13;;;8.31;100.00
45275;BME280;31019;43.780;25.948;2023-03-23T00:13:18;101232.59;;;8.36;100.00
45275;BME280;31019;43.780;25.948;2023-03-23T00:15:45;101219.41;;;8.27;100.00
45275;BME280;31019;43.780;25.948;2023-03-23T00:18:15;101224.19;;;8.32;100.00
45275;BME280;31019;43.780;25.948;2023-03-23T00:20:49;101224.81;;;8.34;100.00
45275;BME280;31019;43.780;25.948;2023-03-23T00:23:16;101229.44;;;8.40;100.00
45275;BME280;31019;43.780;25.948;2023-03-23T00:25:46;101230.31;;;8.33;100.00
45275;BME280;31019;43.780;25.948;2023-03-23T00:28:13;101224.34;;;8.31;100.00
45275;BME280;31019;43.780;25.948;2023-03-23T00:30:40;101222.97;;;8.35;100.00
45275;BME280;31019;43.780;25.948;2023-03-23T00:33:08;101223.97;;;8.42;100.00
45275;BME280;31019;43.780;25.948;2023-03-23T00:35:38;101216.25;;;8.32;100.00
45275;BME280;31019;43.780;25.948;2023-03-23T00:38:06;101222.50;;;8.39;100.00
45275;BME280;31019;43.780;25.948;2023-03-23T00:40:33;101225.00;;;8.33;100.00
45275;BME280;31019;43.780;25.948;2023-03-23T00:43:01;101220.66;;;8.40;100.00
45275;BME280;31019;43.780;25.948;2023-03-23T00:45:29;101215.41;;;8.32;100.00
45275;BME280;31019;43.780;25.948;2023-03-23T00:47:56;101220.34;;;8.35;100.00
45275;BME280;31019;43.780;25.948;2023-03-23T00:50:27;101215.03;;;8.35;100.00
45275;BME280;31019;43.780;25.948;2023-03-23T00:52:54;101202.13;;;8.40;100.00
45275;BME280;31019;43.780;25.948;2023-03-23T00:55:23;101199.50;;;8.40;100.00
45275;BME280;31019;43.780;25.948;2023-03-23T00:57:50;101203.59;;;8.42;100.00
45275;BME280;31019;43.780;25.948;2023-03-23T01:00:18;101208.09;;;8.42;100.00
45275;BME280;31019;43.780;25.948;2023-03-23T01:02:45;101208.94;;;8.34;100.00
45275;BME280;31019;43.780;25.948;2023-03-23T01:05:12;101200.63;;;8.37;100.00
45275;BME280;31019;43.780;25.948;2023-03-23T01:07:40;101206.03;;;8.06;100.00
45275;BME280;31019;43.780;25.948;2023-03-23T01:10:10;101203.03;;;8.09;100.00
45275;BME280;31019;43.780;25.948;2023-03-23T01:12:43;101200.13;;;8.19;100.00
45275;BME280;31019;43.780;25.948;2023-03-23T01:15:14;101202.25;;;8.23;100.00
45275;BME280;31019;43.780;25.948;2023-03-23T01:17:41;101199.63;;;8.23;100.00
45275;BME280;31019;43.780;25.948;2023-03-23T01:20:08;101200.84;;;8.36;100.00
45275;BME280;31019;43.780;25.948;2023-03-23T01:22:36;101201.34;;;8.31;100.00
45275;BME280;31019;43.780;25.948;2023-03-23T01:25:03;101192.59;;;8.31;100.00
45275;BME280;31019;43.780;25.948;2023-03-23T01:27:30;101195.25;;;8.31;100.00
45275;BME280;31019;43.780;25.948;2023-03-23T01:29:59;101200.38;;;8.32;100.00
45275;BME280;31019;43.780;25.948;2023-03-23T01:32:25;101202.66;;;8.35;100.00
45275;BME280;31019;43.780;25.948;2023-03-23T01:34:52;101205.63;;;8.17;100.00
45275;BME280;31019;43.780;25.948;2023-03-23T01:37:19;101205.06;;;8.22;100.00
45275;BME280;31019;43.780;25.948;2023-03-23T01:39:51;101209.59;;;8.13;100.00
45275;BME280;31019;43.780;25.948;2023-03-23T01:42:18;101214.03;;;7.98;100.00
45275;BME280;31019;43.780;25.948;2023-03-23T01:45:28;101206.59;;;8.16;100.00
45275;BME280;31019;43.780;25.948;2023-03-23T01:48:02;101213.09;;;7.91;100.00
45275;BME280;31019;43.780;25.948;2023-03-23T01:50:34;101208.94;;;7.96;100.00
45275;BME280;31019;43.780;25.948;2023-03-23T01:53:04;101210.16;;;7.86;100.00
45275;BME280;31019;43.780;25.948;2023-03-23T01:55:35;101217.03;;;7.95;100.00
45275;BME280;31019;43.780;25.948;2023-03-23T01:58:04;101220.22;;;7.90;100.00
45275;BME280;31019;43.780;25.948;2023-03-23T02:00:33;101214.03;;;7.98;100.00
45275;BME280;31019;43.780;25.948;2023-03-23T02:03:00;101215.91;;;8.12;100.00
45275;BME280;31019;43.780;25.948;2023-03-23T02:05:30;101216.97;;;8.26;100.00
45275;BME280;31019;43.780;25.948;2023-03-23T02:08:00;101224.00;;;8.34;100.00
45275;BME280;31019;43.780;25.948;2023-03-23T02:10:29;101216.13;;;8.25;100.00
45275;BME280;31019;43.780;25.948;2023-03-23T02:12:57;101232.13;;;8.32;100.00
45275;BME280;31019;43.780;25.948;2023-03-23T02:15:25;101236.31;;;8.26;100.00
45275;BME280;31019;43.780;25.948;2023-03-23T02:18:02;101230.94;;;8.35;100.00
45275;BME280;31019;43.780;25.948;2023-03-23T02:20:52;101228.63;;;8.32;100.00
45275;BME280;31019;43.780;25.948;2023-03-23T02:26:29;101220.53;;;8.33;100.00
45275;BME280;31019;43.780;25.948;2023-03-23T02:29:26;101233.41;;;8.36;100.00
45275;BME280;31019;43.780;25.948;2023-03-23T02:32:07;101225.59;;;8.20;100.00
45275;BME280;31019;43.780;25.948;2023-03-23T02:34:39;101233.19;;;8.23;100.00
45275;BME280;31019;43.780;25.948;2023-03-23T02:37:10;101235.84;;;8.23;100.00
45275;BME280;31019;43.780;25.948;2023-03-23T02:39:43;101237.78;;;8.06;100.00
45275;BME280;31019;43.780;25.948;2023-03-23T02:42:13;101240.91;;;7.87;100.00
45275;BME280;31019;43.780;25.948;2023-03-23T02:44:43;101235.88;;;7.92;100.00
45275;BME280;31019;43.780;25.948;2023-03-23T02:47:14;101239.97;;;8.02;100.00
45275;BME280;31019;43.780;25.948;2023-03-23T02:49:47;101238.03;;;7.96;100.00
45275;BME280;31019;43.780;25.948;2023-03-23T02:52:18;101241.53;;;7.66;100.00
45275;BME280;31019;43.780;25.948;2023-03-23T02:54:47;101248.38;;;7.44;100.00
45275;BME280;31019;43.780;25.948;2023-03-23T02:57:15;101250.41;;;7.33;100.00
45275;BME280;31019;43.780;25.948;2023-03-23T02:59:42;101258.78;;;7.06;100.00
45275;BME280;31019;43.780;25.948;2023-03-23T03:02:12;101255.38;;;7.28;100.00
45275;BME280;31019;43.780;25.948;2023-03-23T03:04:42;101254.34;;;7.46;100.00
45275;BME280;31019;43.780;25.948;2023-03-23T03:07:35;101262.69;;;7.57;100.00
45275;BME280;31019;43.780;25.948;2023-03-23T03:10:08;101266.81;;;7.60;100.00
45275;BME280;31019;43.780;25.948;2023-03-23T03:12:46;101260.84;;;7.66;100.00
45275;BME280;31019;43.780;25.948;2023-03-23T03:15:22;101268.59;;;7.68;100.00
45275;BME280;31019;43.780;25.948;2023-03-23T03:17:55;101264.47;;;7.65;100.00
45275;BME280;31019;43.780;25.948;2023-03-23T03:20:25;101275.94;;;7.80;100.00
45275;BME280;31019;43.780;25.948;2023-03-23T03:22:55;101274.34;;;7.71;100.00
45275;BME280;31019;43.780;25.948;2023-03-23T03:25:23;101272.97;;;7.84;100.00
45275;BME280;31019;43.780;25.948;2023-03-23T03:27:54;101275.88;;;7.66;100.00
45275;BME280;31019;43.780;25.948;2023-03-23T03:30:25;101281.31;;;7.72;100.00
45275;BME280;31019;43.780;25.948;2023-03-23T03:32:53;101288.53;;;7.78;100.00
45275;BME280;31019;43.780;25.948;2023-03-23T03:35:21;101289.44;;;7.94;100.00
45275;BME280;31019;43.780;25.948;2023-03-23T03:37:48;101291.31;;;7.85;100.00
45275;BME280;31019;43.780;25.948;2023-03-23T03:40:19;101288.63;;;7.93;100.00
45275;BME280;31019;43.780;25.948;2023-03-23T03:42:47;101288.28;;;7.96;100.00
45275;BME280;31019;43.780;25.948;2023-03-23T03:45:16;101286.09;;;8.00;100.00
45275;BME280;31019;43.780;25.948;2023-03-23T03:47:44;101275.06;;;7.96;100.00
45275;BME280;31019;43.780;25.948;2023-03-23T03:50:11;101282.34;;;7.94;100.00
45275;BME280;31019;43.780;25.948;2023-03-23T03:52:38;101279.88;;;7.93;100.00
45275;BME280;31019;43.780;25.948;2023-03-23T03:55:06;101290.50;;;8.08;100.00
45275;BME280;31019;43.780;25.948;2023-03-23T03:57:34;101291.34;;;8.08;100.00
45275;BME280;31019;43.780;25.948;2023-03-23T04:00:02;101283.09;;;8.03;100.00
45275;BME280;31019;43.780;25.948;2023-03-23T04:02:39;101293.56;;;8.19;100.00
45275;BME280;31019;43.780;25.948;2023-03-23T04:05:07;101287.75;;;8.24;100.00
45275;BME280;31019;43.780;25.948;2023-03-23T04:07:35;101286.44;;;8.20;100.00
45275;BME280;31019;43.780;25.948;2023-03-23T04:10:04;101288.75;;;8.00;100.00
45275;BME280;31019;43.780;25.948;2023-03-23T04:12:32;101298.03;;;8.19;100.00
45275;BME280;31019;43.780;25.948;2023-03-23T04:15:00;101295.91;;;7.91;100.00
45275;BME280;31019;43.780;25.948;2023-03-23T04:17:27;101305.97;;;8.19;100.00
45275;BME280;31019;43.780;25.948;2023-03-23T04:19:54;101302.63;;;8.02;100.00
45275;BME280;31019;43.780;25.948;2023-03-23T04:22:23;101300.47;;;8.06;100.00
45275;BME280;31019;43.780;25.948;2023-03-23T04:24:57;101294.97;;;8.07;100.00
45275;BME280;31019;43.780;25.948;2023-03-23T04:27:26;101296.28;;;8.11;100.00
45275;BME280;31019;43.780;25.948;2023-03-23T04:29:54;101294.28;;;8.13;100.00
45275;BME280;31019;43.780;25.948;2023-03-23T04:32:25;101296.72;;;7.92;100.00
45275;BME280;31019;43.780;25.948;2023-03-23T04:34:54;101294.47;;;7.80;100.00
45275;BME280;31019;43.780;25.948;2023-03-23T04:37:21;101300.75;;;7.79;100.00
45275;BME280;31019;43.780;25.948;2023-03-23T04:39:51;101306.25;;;7.78;100.00
45275;BME280;31019;43.780;25.948;2023-03-23T04:42:29;101303.63;;;8.01;100.00
45275;BME280;31019;43.780;25.948;2023-03-23T04:44:56;101304.91;;;7.74;100.00
45275;BME280;31019;43.780;25.948;2023-03-23T04:47:25;101306.28;;;7.70;100.00
45275;BME280;31019;43.780;25.948;2023-03-23T04:49:55;101304.38;;;7.87;100.00
45275;BME280;31019;43.780;25.948;2023-03-23T04:52:21;101309.50;;;7.80;100.00
45275;BME280;31019;43.780;25.948;2023-03-23T04:54:50;101308.72;;;7.71;100.00
45275;BME280;31019;43.780;25.948;2023-03-23T04:57:17;101297.78;;;7.83;100.00
45275;BME280;31019;43.780;25.948;2023-03-23T04:59:43;101306.72;;;8.04;100.00
45275;BME280;31019;43.780;25.948;2023-03-23T05:02:10;101309.38;;;8.04;100.00
45275;BME280;31019;43.780;25.948;2023-03-23T05:04:39;101309.63;;;8.18;100.00
45275;BME280;31019;43.780;25.948;2023-03-23T05:07:07;101303.22;;;8.12;100.00
45275;BME280;31019;43.780;25.948;2023-03-23T05:09:34;101303.25;;;8.04;100.00
45275;BME280;31019;43.780;25.948;2023-03-23T05:12:05;101315.78;;;8.10;100.00
45275;BME280;31019;43.780;25.948;2023-03-23T05:14:32;101310.56;;;8.02;100.00
45275;BME280;31019;43.780;25.948;2023-03-23T05:16:59;101312.16;;;8.11;100.00
45275;BME280;31019;43.780;25.948;2023-03-23T05:19:26;101318.75;;;8.15;100.00
45275;BME280;31019;43.780;25.948;2023-03-23T05:21:56;101307.63;;;8.20;100.00
45275;BME280;31019;43.780;25.948;2023-03-23T05:24:28;101311.56;;;8.01;100.00
45275;BME280;31019;43.780;25.948;2023-03-23T05:26:56;101314.94;;;8.18;100.00
45275;BME280;31019;43.780;25.948;2023-03-23T05:29:23;101314.94;;;8.18;100.00
45275;BME280;31019;43.780;25.948;2023-03-23T05:31:51;101310.06;;;8.30;100.00
45275;BME280;31019;43.780;25.948;2023-03-23T05:34:21;101329.56;;;8.60;100.00
45275;BME280;31019;43.780;25.948;2023-03-23T05:36:48;101321.63;;;8.29;100.00
45275;BME280;31019;43.780;25.948;2023-03-23T05:39:16;101326.84;;;8.14;100.00
45275;BME280;31019;43.780;25.948;2023-03-23T05:41:42;101332.63;;;8.17;100.00
45275;BME280;31019;43.780;25.948;2023-03-23T05:44:09;101330.81;;;8.18;100.00
45275;BME280;31019;43.780;25.948;2023-03-23T05:46:38;101325.31;;;8.19;100.00
45275;BME280;31019;43.780;25.948;2023-03-23T05:49:05;101331.84;;;8.40;100.00
45275;BME280;31019;43.780;25.948;2023-03-23T05:51:32;101345.53;;;8.43;100.00
45275;BME280;31019;43.780;25.948;2023-03-23T05:54:00;101340.16;;;8.60;100.00
45275;BME280;31019;43.780;25.948;2023-03-23T05:56:28;101337.25;;;8.46;100.00
45275;BME280;31019;43.780;25.948;2023-03-23T05:58:56;101343.91;;;8.34;100.00
45275;BME280;31019;43.780;25.948;2023-03-23T06:01:23;101337.00;;;8.33;100.00
45275;BME280;31019;43.780;25.948;2023-03-23T06:03:50;101343.91;;;8.42;100.00
45275;BME280;31019;43.780;25.948;2023-03-23T06:06:19;101346.31;;;8.52;100.00
45275;BME280;31019;43.780;25.948;2023-03-23T06:08:46;101338.78;;;8.64;100.00
45275;BME280;31019;43.780;25.948;2023-03-23T06:11:13;101341.84;;;8.76;100.00
45275;BME280;31019;43.780;25.948;2023-03-23T06:13:42;101349.63;;;8.92;100.00
45275;BME280;31019;43.780;25.948;2023-03-23T06:16:09;101345.63;;;8.96;100.00
45275;BME280;31019;43.780;25.948;2023-03-23T06:18:36;101341.31;;;8.95;100.00
45275;BME280;31019;43.780;25.948;2023-03-23T06:21:06;101346.84;;;9.08;100.00
45275;BME280;31019;43.780;25.948;2023-03-23T06:23:33;101344.22;;;9.23;100.00
45275;BME280;31019;43.780;25.948;2023-03-23T06:26:01;101344.56;;;9.05;100.00
45275;BME280;31019;43.780;25.948;2023-03-23T06:28:29;101352.53;;;9.35;100.00
45275;BME280;31019;43.780;25.948;2023-03-23T06:31:00;101352.63;;;9.42;100.00
45275;BME280;31019;43.780;25.948;2023-03-23T06:33:27;101357.19;;;9.48;100.00
45275;BME280;31019;43.780;25.948;2023-03-23T06:35:53;101360.66;;;9.33;100.00
45275;BME280;31019;43.780;25.948;2023-03-23T06:38:21;101365.31;;;9.46;100.00
45275;BME280;31019;43.780;25.948;2023-03-23T06:40:48;101361.56;;;9.55;100.00
45275;BME280;31019;43.780;25.948;2023-03-23T06:43:16;101366.34;;;9.75;100.00
45275;BME280;31019;43.780;25.948;2023-03-23T06:45:42;101365.00;;;10.00;100.00
45275;BME280;31019;43.780;25.948;2023-03-23T06:48:12;101367.31;;;10.25;100.00
45275;BME280;31019;43.780;25.948;2023-03-23T06:50:38;101362.56;;;9.84;100.00
45275;BME280;31019;43.780;25.948;2023-03-23T06:53:08;101373.31;;;10.27;100.00
45275;BME280;31019;43.780;25.948;2023-03-23T06:55:35;101369.72;;;9.83;100.00
45275;BME280;31019;43.780;25.948;2023-03-23T06:58:02;101370.28;;;10.30;100.00
45275;BME280;31019;43.780;25.948;2023-03-23T07:00:29;101369.00;;;9.75;100.00
45275;BME280;31019;43.780;25.948;2023-03-23T07:02:56;101379.03;;;9.79;100.00
45275;BME280;31019;43.780;25.948;2023-03-23T07:05:24;101379.31;;;9.84;100.00
45275;BME280;31019;43.780;25.948;2023-03-23T07:07:51;101379.22;;;9.93;100.00
45275;BME280;31019;43.780;25.948;2023-03-23T07:10:18;101383.16;;;9.82;100.00
45275;BME280;31019;43.780;25.948;2023-03-23T07:12:46;101374.47;;;9.73;100.00
45275;BME280;31019;43.780;25.948;2023-03-23T07:15:12;101387.47;;;9.53;100.00
45275;BME280;31019;43.780;25.948;2023-03-23T07:17:41;101392.75;;;9.38;100.00
45275;BME280;31019;43.780;25.948;2023-03-23T07:20:08;101386.13;;;9.20;100.00
45275;BME280;31019;43.780;25.948;2023-03-23T07:22:37;101384.25;;;9.73;100.00
45275;BME280;31019;43.780;25.948;2023-03-23T07:25:04;101391.09;;;9.82;100.00
45275;BME280;31019;43.780;25.948;2023-03-23T07:27:31;101398.91;;;9.83;100.00
45275;BME280;31019;43.780;25.948;2023-03-23T07:29:58;101398.84;;;9.98;100.00
45275;BME280;31019;43.780;25.948;2023-03-23T07:32:24;101394.50;;;9.91;100.00
45275;BME280;31019;43.780;25.948;2023-03-23T07:34:51;101404.50;;;10.10;100.00
45275;BME280;31019;43.780;25.948;2023-03-23T07:37:18;101400.19;;;10.24;100.00
45275;BME280;31019;43.780;25.948;2023-03-23T07:39:46;101404.25;;;10.20;100.00
45275;BME280;31019;43.780;25.948;2023-03-23T07:42:13;101398.81;;;10.64;100.00
45275;BME280;31019;43.780;25.948;2023-03-23T07:44:40;101403.31;;;10.13;100.00
45275;BME280;31019;43.780;25.948;2023-03-23T07:47:06;101404.72;;;9.94;100.00
45275;BME280;31019;43.780;25.948;2023-03-23T07:49:33;101406.16;;;10.26;100.00
45275;BME280;31019;43.780;25.948;2023-03-23T07:52:01;101410.75;;;10.32;100.00
45275;BME280;31019;43.780;25.948;2023-03-23T07:54:28;101410.75;;;10.17;100.00
45275;BME280;31019;43.780;25.948;2023-03-23T07:56:56;101415.81;;;9.68;100.00
45275;BME280;31019;43.780;25.948;2023-03-23T07:59:23;101420.56;;;10.02;100.00
45275;BME280;31019;43.780;25.948;2023-03-23T08:01:50;101410.94;;;10.52;100.00
45275;BME280;31019;43.780;25.948;2023-03-23T08:04:16;101410.09;;;10.15;100.00
45275;BME280;31019;43.780;25.948;2023-03-23T08:06:43;101410.56;;;10.04;100.00
45275;BME280;31019;43.780;25.948;2023-03-23T08:09:10;101420.19;;;9.60;100.00
45275;BME280;31019;43.780;25.948;2023-03-23T08:11:38;101422.78;;;9.83;100.00
45275;BME280;31019;43.780;25.948;2023-03-23T08:14:06;101423.88;;;10.25;100.00
45275;BME280;31019;43.780;25.948;2023-03-23T08:16:33;101427.59;;;9.35;100.00
45275;BME280;31019;43.780;25.948;2023-03-23T08:19:01;101430.53;;;9.70;100.00
45275;BME280;31019;43.780;25.948;2023-03-23T08:21:28;101427.06;;;9.84;100.00
45275;BME280;31019;43.780;25.948;2023-03-23T08:23:54;101433.56;;;9.82;100.00
45275;BME280;31019;43.780;25.948;2023-03-23T08:26:21;101433.63;;;10.03;100.00
45275;BME280;31019;43.780;25.948;2023-03-23T08:28:48;101427.50;;;9.73;100.00
45275;BME280;31019;43.780;25.948;2023-03-23T08:31:16;101435.75;;;9.63;100.00
45275;BME280;31019;43.780;25.948;2023-03-23T08:33:43;101431.16;;;10.17;100.00
45275;BME280;31019;43.780;25.948;2023-03-23T08:36:10;101427.34;;;9.60;100.00
45275;BME280;31019;43.780;25.948;2023-03-23T08:38:37;101427.28;;;10.19;100.00
45275;BME280;31019;43.780;25.948;2023-03-23T08:41:05;101430.81;;;9.60;100.00
45275;BME280;31019;43.780;25.948;2023-03-23T08:43:32;101423.56;;;10.14;100.00
45275;BME280;31019;43.780;25.948;2023-03-23T08:45:59;101426.41;;;10.12;100.00
45275;BME280;31019;43.780;25.948;2023-03-23T08:48:28;101425.94;;;10.60;100.00
45275;BME280;31019;43.780;25.948;2023-03-23T08:50:54;101423.38;;;10.30;100.00
45275;BME280;31019;43.780;25.948;2023-03-23T08:53:21;101426.16;;;10.43;100.00
45275;BME280;31019;43.780;25.948;2023-03-23T08:55:48;101421.88;;;10.42;100.00
45275;BME280;31019;43.780;25.948;2023-03-23T08:58:15;101429.16;;;10.55;100.00
45275;BME280;31019;43.780;25.948;2023-03-23T09:00:43;101436.00;;;9.98;100.00
45275;BME280;31019;43.780;25.948;2023-03-23T09:03:11;101429.59;;;10.07;100.00
45275;BME280;31019;43.780;25.948;2023-03-23T09:05:40;101429.09;;;10.48;100.00
45275;BME280;31019;43.780;25.948;2023-03-23T09:08:11;101424.91;;;10.39;100.00
45275;BME280;31019;43.780;25.948;2023-03-23T09:10:39;101424.72;;;10.41;100.00
45275;BME280;31019;43.780;25.948;2023-03-23T09:13:06;101425.94;;;10.60;100.00
45275;BME280;31019;43.780;25.948;2023-03-23T09:15:33;101420.38;;;10.76;100.00
45275;BME280;31019;43.780;25.948;2023-03-23T09:17:59;101407.78;;;10.63;100.00
45275;BME280;31019;43.780;25.948;2023-03-23T09:20:27;101422.09;;;10.62;100.00
45275;BME280;31019;43.780;25.948;2023-03-23T09:22:56;101417.97;;;11.03;100.00
45275;BME280;31019;43.780;25.948;2023-03-23T09:25:25;101426.69;;;11.81;100.00
45275;BME280;31019;43.780;25.948;2023-03-23T09:27:54;101418.47;;;11.76;100.00
45275;BME280;31019;43.780;25.948;2023-03-23T09:30:23;101415.66;;;11.49;100.00
45275;BME280;31019;43.780;25.948;2023-03-23T09:32:51;101420.56;;;11.80;100.00
45275;BME280;31019;43.780;25.948;2023-03-23T09:35:19;101413.69;;;11.64;100.00
45275;BME280;31019;43.780;25.948;2023-03-23T09:37:47;101404.63;;;11.52;100.00
45275;BME280;31019;43.780;25.948;2023-03-23T09:40:19;101414.13;;;11.33;100.00
45275;BME280;31019;43.780;25.948;2023-03-23T09:43:06;101411.44;;;11.33;100.00
45275;BME280;31019;43.780;25.948;2023-03-23T09:45:41;101413.16;;;11.41;100.00
45275;BME280;31019;43.780;25.948;2023-03-23T09:48:34;101408.22;;;12.07;100.00
45275;BME280;31019;43.780;25.948;2023-03-23T09:51:13;101402.63;;;13.63;100.00
45275;BME280;31019;43.780;25.948;2023-03-23T09:53:47;101397.16;;;14.73;100.00
45275;BME280;31019;43.780;25.948;2023-03-23T09:56:16;101392.13;;;14.20;100.00
45275;BME280;31019;43.780;25.948;2023-03-23T09:58:49;101390.44;;;14.96;100.00
45275;BME280;31019;43.780;25.948;2023-03-23T10:01:21;101386.50;;;14.98;100.00
45275;BME280;31019;43.780;25.948;2023-03-23T10:03:55;101389.22;;;15.17;100.00
45275;BME280;31019;43.780;25.948;2023-03-23T10:06:27;101376.03;;;15.58;100.00
45275;BME280;31019;43.780;25.948;2023-03-23T10:08:55;101379.63;;;15.89;100.00
45275;BME280;31019;43.780;25.948;2023-03-23T10:11:31;101375.44;;;13.80;100.00
45275;BME280;31019;43.780;25.948;2023-03-23T10:14:12;101379.84;;;15.69;100.00
45275;BME280;31019;43.780;25.948;2023-03-23T10:16:48;101369.28;;;13.86;100.00
45275;BME280;31019;43.780;25.948;2023-03-23T10:19:23;101369.03;;;15.39;100.00
45275;BME280;31019;43.780;25.948;2023-03-23T10:21:57;101373.09;;;16.15;100.00
45275;BME280;31019;43.780;25.948;2023-03-23T10:24:31;101369.72;;;16.92;100.00
45275;BME280;31019;43.780;25.948;2023-03-23T10:27:07;101365.38;;;16.91;100.00
45275;BME280;31019;43.780;25.948;2023-03-23T10:29:42;101372.25;;;15.04;100.00
45275;BME280;31019;43.780;25.948;2023-03-23T10:32:13;101371.59;;;15.89;100.00
45275;BME280;31019;43.780;25.948;2023-03-23T10:34:43;101358.25;;;16.43;100.00
45275;BME280;31019;43.780;25.948;2023-03-23T10:37:14;101365.03;;;15.05;100.00
45275;BME280;31019;43.780;25.948;2023-03-23T10:39:47;101359.16;;;13.94;100.00
45275;BME280;31019;43.780;25.948;2023-03-23T10:42:26;101353.50;;;14.16;100.00
45275;BME280;31019;43.780;25.948;2023-03-23T10:44:53;101351.34;;;14.70;100.00
45275;BME280;31019;43.780;25.948;2023-03-23T10:47:20;101348.31;;;13.83;100.00
45275;BME280;31019;43.780;25.948;2023-03-23T10:49:50;101341.00;;;15.23;100.00
45275;BME280;31019;43.780;25.948;2023-03-23T10:52:27;101343.28;;;16.23;100.00
45275;BME280;31019;43.780;25.948;2023-03-23T10:55:00;101347.56;;;16.55;100.00
45275;BME280;31019;43.780;25.948;2023-03-23T10:57:32;101340.94;;;14.86;100.00
45275;BME280;31019;43.780;25.948;2023-03-23T11:00:01;101339.28;;;14.60;100.00
45275;BME280;31019;43.780;25.948;2023-03-23T11:02:35;101345.84;;;14.89;100.00
45275;BME280;31019;43.780;25.948;2023-03-23T11:05:04;101340.94;;;16.15;100.00
45275;BME280;31019;43.780;25.948;2023-03-23T11:07:34;101340.19;;;15.41;100.00
45275;BME280;31019;43.780;25.948;2023-03-23T11:10:16;101324.22;;;15.71;100.00
45275;BME280;31019;43.780;25.948;2023-03-23T11:12:45;101326.44;;;14.06;100.00
45275;BME280;31019;43.780;25.948;2023-03-23T11:15:28;101322.28;;;14.16;100.00
45275;BME280;31019;43.780;25.948;2023-03-23T11:18:00;101320.75;;;15.64;100.00
45275;BME280;31019;43.780;25.948;2023-03-23T11:20:28;101303.59;;;15.72;100.00
45275;BME280;31019;43.780;25.948;2023-03-23T11:22:56;101300.69;;;15.55;100.00
45275;BME280;31019;43.780;25.948;2023-03-23T11:25:23;101304.25;;;14.69;100.00
45275;BME280;31019;43.780;25.948;2023-03-23T11:27:53;101307.38;;;14.65;100.00
45275;BME280;31019;43.780;25.948;2023-03-23T11:30:24;101299.34;;;14.34;100.00
45275;BME280;31019;43.780;25.948;2023-03-23T11:32:53;101296.91;;;15.26;100.00
45275;BME280;31019;43.780;25.948;2023-03-23T11:35:22;101293.66;;;16.21;100.00
45275;BME280;31019;43.780;25.948;2023-03-23T11:37:52;101286.63;;;16.08;100.00
45275;BME280;31019;43.780;25.948;2023-03-23T11:40:21;101291.34;;;15.94;100.00
45275;BME280;31019;43.780;25.948;2023-03-23T11:42:49;101288.97;;;17.05;100.00
45275;BME280;31019;43.780;25.948;2023-03-23T11:45:30;101285.94;;;18.40;100.00
45275;BME280;31019;43.780;25.948;2023-03-23T11:48:03;101277.88;;;17.94;100.00
45275;BME280;31019;43.780;25.948;2023-03-23T11:50:37;101277.13;;;16.36;100.00
45275;BME280;31019;43.780;25.948;2023-03-23T11:53:11;101281.84;;;17.11;100.00
45275;BME280;31019;43.780;25.948;2023-03-23T11:55:53;101281.94;;;17.68;100.00
45275;BME280;31019;43.780;25.948;2023-03-23T11:58:23;101276.00;;;17.66;100.00
45275;BME280;31019;43.780;25.948;2023-03-23T12:00:55;101278.03;;;15.88;100.00
45275;BME280;31019;43.780;25.948;2023-03-23T12:03:42;101276.91;;;16.25;100.00
45275;BME280;31019;43.780;25.948;2023-03-23T12:06:18;101276.03;;;16.79;100.00
45275;BME280;31019;43.780;25.948;2023-03-23T12:08:58;101272.97;;;17.22;100.00
45275;BME280;31019;43.780;25.948;2023-03-23T12:11:36;101273.94;;;17.04;100.00
45275;BME280;31019;43.780;25.948;2023-03-23T12:14:09;101267.78;;;15.85;100.00
45275;BME280;31019;43.780;25.948;2023-03-23T12:16:48;101280.56;;;15.34;100.00
45275;BME280;31019;43.780;25.948;2023-03-23T12:19:24;101268.03;;;15.83;100.00
45275;BME280;31019;43.780;25.948;2023-03-23T12:22:01;101272.38;;;15.96;100.00
45275;BME280;31019;43.780;25.948;2023-03-23T12:24:46;101263.63;;;16.42;100.00
45275;BME280;31019;43.780;25.948;2023-03-23T12:27:22;101271.78;;;15.94;100.00
45275;BME280;31019;43.780;25.948;2023-03-23T12:30:00;101258.34;;;16.24;100.00
45275;BME280;31019;43.780;25.948;2023-03-23T12:32:54;101261.84;;;15.64;100.00
45275;BME280;31019;43.780;25.948;2023-03-23T12:35:42;101257.03;;;15.54;100.00
45275;BME280;31019;43.780;25.948;2023-03-23T12:38:37;101261.84;;;16.24;100.00
45275;BME280;31019;43.780;25.948;2023-03-23T12:41:17;101252.25;;;18.03;100.00
45275;BME280;31019;43.780;25.948;2023-03-23T12:43:51;101244.44;;;17.73;100.00
45275;BME280;31019;43.780;25.948;2023-03-23T12:46:33;101247.97;;;19.31;100.00
45275;BME280;31019;43.780;25.948;2023-03-23T12:49:05;101249.41;;;17.53;100.00
45275;BME280;31019;43.780;25.948;2023-03-23T12:51:37;101257.94;;;17.90;100.00
45275;BME280;31019;43.780;25.948;2023-03-23T12:54:12;101245.91;;;17.00;100.00